createdAt,value
2018-12-01T00:00:23.180Z,4.80
2018-12-01T00:02:51.424Z,4.80
2018-12-01T00:05:19.372Z,4.90
2018-12-01T00:07:47.763Z,4.90
2018-12-01T00:10:15.705Z,4.90
2018-12-01T00:12:43.650Z,4.80
2018-12-01T00:15:14.219Z,4.90
2018-12-01T00:17:42.180Z,4.90
2018-12-01T00:20:13.641Z,4.80
2018-12-01T00:22:41.620Z,4.80
2018-12-01T00:25:09.705Z,4.90
2018-12-01T00:27:37.932Z,4.80
2018-12-01T00:30:17.604Z,4.90
2018-12-01T00:32:46.597Z,4.90
2018-12-01T00:35:14.549Z,4.90
2018-12-01T00:37:42.500Z,4.80
2018-12-01T00:40:15.648Z,4.80
2018-12-01T00:42:43.610Z,4.80
2018-12-01T00:45:12.717Z,4.70
2018-12-01T00:47:40.698Z,4.80
2018-12-01T00:50:17.304Z,4.80
2018-12-01T00:52:46.023Z,4.90
2018-12-01T00:55:15.822Z,4.80
2018-12-01T00:57:43.827Z,4.70
2018-12-01T01:00:23.122Z,4.80
2018-12-01T01:02:52.653Z,4.80
2018-12-01T01:05:22.329Z,4.80
2018-12-01T01:07:50.304Z,4.80
2018-12-01T01:10:18.713Z,4.80
2018-12-01T01:12:47.146Z,4.80
2018-12-01T01:15:15.092Z,4.80
2018-12-01T01:17:43.059Z,4.90
2018-12-01T01:20:13.984Z,4.90
2018-12-01T01:22:41.924Z,4.90
2018-12-01T01:25:10.925Z,4.90
2018-12-01T01:27:38.862Z,4.80
2018-12-01T01:30:10.517Z,4.80
2018-12-01T01:32:38.486Z,4.80
2018-12-01T01:35:06.469Z,4.90
2018-12-01T01:37:34.438Z,4.90
2018-12-01T01:40:02.383Z,5.00
2018-12-01T01:42:30.357Z,5.00
2018-12-01T01:44:58.310Z,5.00
2018-12-01T01:47:26.258Z,4.90
2018-12-01T01:49:54.223Z,4.90
2018-12-01T01:52:22.284Z,4.90
2018-12-01T01:54:50.229Z,4.90
2018-12-01T01:57:18.181Z,4.90
2018-12-01T01:59:49.492Z,4.90
2018-12-01T02:02:17.422Z,5.00
2018-12-01T02:04:45.358Z,5.00
2018-12-01T02:07:13.316Z,4.90
2018-12-01T02:09:41.341Z,4.90
2018-12-01T02:12:09.306Z,4.90
2018-12-01T02:14:37.241Z,5.00
2018-12-01T02:17:05.275Z,4.90
2018-12-01T02:19:33.252Z,4.90
2018-12-01T02:22:01.344Z,5.00
2018-12-01T02:24:29.315Z,4.90
2018-12-01T02:26:57.298Z,5.00
2018-12-01T02:29:25.337Z,5.00
2018-12-01T02:31:53.266Z,4.90
2018-12-01T02:34:21.219Z,5.00
2018-12-01T02:36:49.164Z,5.00
2018-12-01T02:39:17.100Z,5.00
2018-12-01T02:41:45.077Z,5.00
2018-12-01T02:44:24.617Z,5.00
2018-12-01T02:47:05.058Z,5.00
2018-12-01T02:49:33.000Z,5.00
2018-12-01T02:52:00.929Z,4.90
2018-12-01T02:54:28.888Z,5.00
2018-12-01T02:56:56.813Z,5.00
2018-12-01T02:59:24.791Z,5.00
2018-12-01T03:01:52.848Z,5.00
2018-12-01T03:04:20.772Z,4.90
2018-12-01T03:06:48.730Z,5.00
2018-12-01T03:09:16.802Z,4.90
2018-12-01T03:11:44.738Z,4.90
2018-12-01T03:14:12.696Z,4.90
2018-12-01T03:16:40.639Z,4.80
2018-12-01T03:19:08.576Z,4.90
2018-12-01T03:21:36.528Z,4.90
2018-12-01T03:24:04.533Z,4.90
2018-12-01T03:26:32.516Z,4.90
2018-12-01T03:29:00.481Z,5.00
2018-12-01T03:31:28.537Z,5.00
2018-12-01T03:33:56.526Z,4.90
2018-12-01T03:36:24.482Z,4.90
2018-12-01T03:38:52.456Z,4.80
2018-12-01T03:41:20.444Z,4.80
2018-12-01T03:43:48.377Z,4.80
2018-12-01T03:46:16.328Z,4.90
2018-12-01T03:48:44.262Z,4.90
2018-12-01T03:51:12.471Z,4.90
2018-12-01T03:53:40.740Z,5.00
2018-12-01T03:56:08.893Z,5.10
2018-12-01T03:58:37.184Z,5.10
2018-12-01T04:01:05.422Z,5.10
2018-12-01T04:03:33.543Z,5.10
2018-12-01T04:06:01.692Z,5.10
2018-12-01T04:08:29.824Z,5.10
2018-12-01T04:10:58.039Z,5.00
2018-12-01T04:13:26.153Z,4.90
2018-12-01T04:15:54.347Z,5.00
2018-12-01T04:18:25.798Z,4.90
2018-12-01T04:20:53.990Z,5.00
2018-12-01T04:23:22.123Z,5.00
2018-12-01T04:25:50.386Z,5.00
2018-12-01T04:28:18.590Z,5.10
2018-12-01T04:30:46.721Z,5.00
2018-12-01T04:33:18.363Z,5.00
2018-12-01T04:35:46.522Z,4.90
2018-12-01T04:38:14.708Z,5.00
2018-12-01T04:40:42.651Z,5.00
2018-12-01T04:43:10.692Z,5.10
2018-12-01T04:45:38.671Z,5.10
2018-12-01T04:48:06.693Z,5.10
2018-12-01T04:50:34.666Z,5.10
2018-12-01T04:53:02.641Z,5.10
2018-12-01T04:55:30.599Z,5.20
2018-12-01T04:57:58.540Z,5.20
2018-12-01T05:00:26.487Z,5.10
2018-12-01T05:02:57.958Z,5.10
2018-12-01T05:05:25.884Z,5.10
2018-12-01T05:07:53.869Z,5.10
2018-12-01T05:10:22.666Z,5.00
2018-12-01T05:12:50.604Z,5.00
2018-12-01T05:15:19.184Z,5.00
2018-12-01T05:17:47.293Z,5.00
2018-12-01T05:20:23.568Z,5.10
2018-12-01T05:22:52.450Z,5.10
2018-12-01T05:25:20.434Z,5.10
2018-12-01T05:27:48.438Z,5.10
2018-12-01T05:30:16.481Z,5.10
2018-12-01T05:32:44.445Z,5.10
2018-12-01T05:35:19.692Z,5.10
2018-12-01T05:37:47.642Z,5.00
2018-12-01T05:40:15.571Z,5.00
2018-12-01T05:42:43.531Z,5.10
2018-12-01T05:45:15.450Z,5.10
2018-12-01T05:47:43.384Z,5.00
2018-12-01T05:50:12.197Z,5.00
2018-12-01T05:52:40.161Z,5.10
2018-12-01T05:55:09.336Z,5.20
2018-12-01T05:57:37.319Z,5.20
2018-12-01T06:00:08.880Z,5.30
2018-12-01T06:02:36.818Z,5.30
2018-12-01T06:05:05.259Z,5.30
2018-12-01T06:07:33.219Z,5.30
2018-12-01T06:10:01.174Z,5.30
2018-12-01T06:12:29.235Z,5.30
2018-12-01T06:14:57.232Z,5.40
2018-12-01T06:17:25.206Z,5.30
2018-12-01T06:19:53.293Z,5.30
2018-12-01T06:22:21.238Z,5.30
2018-12-01T06:24:49.189Z,5.30
2018-12-01T06:27:17.157Z,5.40
2018-12-01T06:29:45.100Z,5.30
2018-12-01T06:32:13.167Z,5.30
2018-12-01T06:34:44.677Z,5.30
2018-12-01T06:37:12.607Z,5.30
2018-12-01T06:39:40.563Z,5.30
2018-12-01T06:42:08.516Z,5.30
2018-12-01T06:44:36.512Z,5.20
2018-12-01T06:47:04.601Z,5.10
2018-12-01T06:49:36.494Z,5.10
2018-12-01T06:52:04.724Z,5.20
2018-12-01T06:54:32.819Z,5.20
2018-12-01T06:57:00.737Z,5.20
2018-12-01T06:59:28.672Z,5.30
2018-12-01T07:01:56.644Z,5.30
2018-12-01T07:04:24.589Z,5.40
2018-12-01T07:06:52.638Z,5.40
2018-12-01T07:09:20.601Z,5.40
2018-12-01T07:11:48.584Z,5.40
2018-12-01T07:14:16.641Z,5.50
2018-12-01T07:16:44.661Z,5.40
2018-12-01T07:19:19.072Z,5.50
2018-12-01T07:21:47.104Z,5.40
2018-12-01T07:24:15.244Z,5.40
2018-12-01T07:26:43.261Z,5.40
2018-12-01T07:29:11.211Z,5.50
2018-12-01T07:31:39.141Z,5.50
2018-12-01T07:34:07.154Z,5.50
2018-12-01T07:36:35.591Z,5.60
2018-12-01T07:39:05.062Z,5.60
2018-12-01T07:41:33.033Z,5.60
2018-12-01T07:44:01.081Z,5.60
2018-12-01T07:46:29.092Z,5.60
2018-12-01T07:48:57.031Z,5.60
2018-12-01T07:51:24.992Z,5.70
2018-12-01T07:53:52.925Z,5.70
2018-12-01T07:56:20.890Z,5.70
2018-12-01T07:58:48.840Z,5.70
2018-12-01T08:01:17.172Z,5.70
2018-12-01T08:03:45.526Z,5.70
2018-12-01T08:06:13.750Z,5.70
2018-12-01T08:08:41.748Z,5.70
2018-12-01T08:11:10.180Z,5.80
2018-12-01T08:13:38.506Z,5.80
2018-12-01T08:16:07.423Z,5.80
2018-12-01T08:18:35.460Z,5.90
2018-12-01T08:21:03.412Z,5.90
2018-12-01T08:23:31.348Z,6.00
2018-12-01T08:25:59.333Z,5.90
2018-12-01T08:28:27.388Z,5.90
2018-12-01T08:30:55.722Z,6.00
2018-12-01T08:33:24.068Z,6.00
2018-12-01T08:35:52.548Z,6.00
2018-12-01T08:38:21.346Z,6.00
2018-12-01T08:40:49.689Z,6.00
2018-12-01T08:43:17.616Z,6.00
2018-12-01T08:45:45.726Z,6.00
2018-12-01T08:50:57.281Z,6.00
2018-12-01T08:53:25.565Z,6.00
2018-12-01T08:55:53.515Z,6.10
2018-12-01T08:58:21.504Z,6.10
2018-12-01T09:00:49.504Z,6.10
2018-12-01T09:03:24.765Z,6.10
2018-12-01T09:05:53.234Z,6.10
2018-12-01T09:08:21.199Z,6.10
2018-12-01T09:10:49.138Z,6.10
2018-12-01T09:13:18.706Z,6.10
2018-12-01T09:15:46.689Z,6.10
2018-12-01T09:18:14.690Z,6.10
2018-12-01T09:20:42.667Z,6.20
2018-12-01T09:23:10.653Z,6.10
2018-12-01T09:25:38.645Z,6.10
2018-12-01T09:28:07.893Z,6.10
2018-12-01T09:30:37.291Z,6.20
2018-12-01T09:33:05.597Z,6.10
2018-12-01T09:35:33.593Z,6.10
2018-12-01T09:38:01.540Z,6.10
2018-12-01T09:40:29.545Z,6.20
2018-12-01T09:42:57.656Z,6.20
2018-12-01T09:45:25.849Z,6.30
2018-12-01T09:47:55.021Z,6.30
2018-12-01T09:50:23.015Z,6.40
2018-12-01T09:52:52.217Z,6.40
2018-12-01T09:55:21.597Z,6.50
2018-12-01T09:57:49.639Z,6.40
2018-12-01T10:00:21.008Z,6.40
2018-12-01T10:02:48.962Z,6.40
2018-12-01T10:05:18.099Z,6.40
2018-12-01T10:07:46.061Z,6.40
2018-12-01T10:10:16.037Z,6.40
2018-12-01T10:12:44.457Z,6.50
2018-12-01T10:15:20.397Z,6.50
2018-12-01T10:17:48.351Z,6.50
2018-12-01T10:20:21.594Z,6.60
2018-12-01T10:22:49.619Z,6.60
2018-12-01T10:25:17.861Z,6.60
2018-12-01T10:27:46.213Z,6.60
2018-12-01T10:30:15.388Z,6.60
2018-12-01T10:32:43.378Z,6.60
2018-12-01T10:35:13.198Z,6.70
2018-12-01T10:37:41.205Z,6.70
2018-12-01T10:40:10.275Z,6.80
2018-12-01T10:42:38.261Z,6.80
2018-12-01T10:45:09.774Z,6.80
2018-12-01T10:47:37.903Z,6.90
2018-12-01T10:50:08.622Z,6.90
2018-12-01T10:52:36.588Z,6.90
2018-12-01T10:55:06.865Z,6.90
2018-12-01T10:57:34.820Z,7.00
2018-12-01T11:00:03.009Z,7.00
2018-12-01T11:02:36.547Z,7.10
2018-12-01T11:05:04.545Z,7.10
2018-12-01T11:07:32.614Z,7.10
2018-12-01T11:10:04.029Z,7.10
2018-12-01T11:12:32.011Z,7.20
2018-12-01T11:15:00.161Z,7.20
2018-12-01T11:17:28.118Z,7.20
2018-12-01T11:19:56.309Z,7.20
2018-12-01T11:22:24.256Z,7.20
2018-12-01T11:24:52.213Z,7.20
2018-12-01T11:27:20.233Z,7.20
2018-12-01T11:29:48.301Z,7.20
2018-12-01T11:32:16.363Z,7.20
2018-12-01T11:34:44.532Z,7.10
2018-12-01T11:37:12.488Z,7.10
2018-12-01T11:39:40.598Z,7.10
2018-12-01T11:42:08.691Z,7.20
2018-12-01T11:44:36.667Z,7.20
2018-12-01T11:47:04.672Z,7.20
2018-12-01T11:49:32.660Z,7.30
2018-12-01T11:52:00.683Z,7.30
2018-12-01T11:54:28.665Z,7.40
2018-12-01T11:56:56.879Z,7.40
2018-12-01T11:59:24.856Z,7.50
2018-12-01T12:01:52.838Z,7.50
2018-12-01T12:04:20.810Z,7.60
2018-12-01T12:06:48.759Z,7.60
2018-12-01T12:09:16.839Z,7.60
2018-12-01T12:11:44.856Z,7.60
2018-12-01T12:14:12.814Z,7.70
2018-12-01T12:16:40.750Z,7.70
2018-12-01T12:19:08.886Z,7.80
2018-12-01T12:21:36.900Z,7.80
2018-12-01T12:24:05.349Z,7.80
2018-12-01T12:26:33.433Z,7.80
2018-12-01T12:29:01.396Z,7.80
2018-12-01T12:31:29.594Z,7.90
2018-12-01T12:33:57.664Z,7.90
2018-12-01T12:36:25.608Z,7.90
2018-12-01T12:38:53.620Z,7.90
2018-12-01T12:41:21.595Z,7.90
2018-12-01T12:43:49.591Z,8.00
2018-12-01T12:46:17.605Z,8.00
2018-12-01T12:48:45.644Z,8.00
2018-12-01T12:51:13.627Z,8.00
2018-12-01T12:53:41.621Z,8.00
2018-12-01T12:56:09.687Z,8.00
2018-12-01T12:58:37.999Z,8.00
2018-12-01T13:01:06.046Z,8.10
2018-12-01T13:03:34.724Z,8.10
2018-12-01T13:06:02.684Z,8.10
2018-12-01T13:08:30.697Z,8.10
2018-12-01T13:11:02.433Z,8.20
2018-12-01T13:13:30.381Z,8.20
2018-12-01T13:15:58.467Z,8.20
2018-12-01T13:18:26.451Z,8.20
2018-12-01T13:20:54.397Z,8.20
2018-12-01T13:23:22.423Z,8.20
2018-12-01T13:25:50.411Z,8.20
2018-12-01T13:28:21.987Z,8.30
2018-12-01T13:30:55.313Z,8.30
2018-12-01T13:33:23.716Z,8.30
2018-12-01T13:35:51.722Z,8.30
2018-12-01T13:38:19.820Z,8.30
2018-12-01T13:40:47.783Z,8.30
2018-12-01T13:43:15.773Z,8.30
2018-12-01T13:45:43.838Z,8.30
2018-12-01T13:48:11.813Z,8.20
2018-12-01T13:50:39.754Z,8.20
2018-12-01T13:53:14.209Z,8.20
2018-12-01T13:55:42.166Z,8.20
2018-12-01T13:58:10.157Z,8.10
2018-12-01T14:00:38.862Z,8.10
2018-12-01T14:03:07.289Z,8.20
2018-12-01T14:08:57.854Z,8.10
2018-12-01T14:11:26.678Z,8.10
2018-12-01T14:13:54.851Z,8.10
2018-12-01T14:16:22.804Z,8.00
2018-12-01T14:18:50.749Z,8.10
2018-12-01T14:21:18.943Z,8.10
2018-12-01T14:23:46.916Z,8.10
2018-12-01T14:26:14.879Z,8.00
2018-12-01T14:28:42.859Z,8.00
2018-12-01T14:31:10.807Z,8.00
2018-12-01T14:33:38.779Z,8.00
2018-12-01T14:36:06.752Z,8.00
2018-12-01T14:38:34.692Z,8.00
2018-12-01T14:41:02.632Z,7.90
2018-12-01T14:43:30.633Z,7.90
2018-12-01T14:45:58.589Z,7.90
2018-12-01T14:48:26.548Z,7.90
2018-12-01T14:50:54.534Z,7.90
2018-12-01T14:53:22.513Z,7.90
2018-12-01T14:55:50.467Z,7.90
2018-12-01T14:58:18.467Z,7.90
2018-12-01T15:00:46.454Z,7.80
2018-12-01T15:03:14.534Z,7.80
2018-12-01T15:05:42.503Z,7.80
2018-12-01T15:08:10.460Z,7.70
2018-12-01T15:10:38.515Z,7.70
2018-12-01T15:13:06.767Z,7.70
2018-12-01T15:15:35.009Z,7.70
2018-12-01T15:18:03.017Z,7.70
2018-12-01T15:20:30.977Z,7.60
2018-12-01T15:22:59.200Z,7.60
2018-12-01T15:25:34.510Z,7.60
2018-12-01T15:28:02.465Z,7.60
2018-12-01T15:30:30.528Z,7.70
2018-12-01T15:33:11.846Z,7.60
2018-12-01T15:35:41.052Z,7.60
2018-12-01T15:38:09.632Z,7.60
2018-12-01T15:40:40.993Z,7.60
2018-12-01T15:43:08.982Z,7.50
2018-12-01T15:45:36.976Z,7.50
2018-12-01T15:48:05.492Z,7.50
2018-12-01T15:50:33.454Z,7.50
2018-12-01T15:53:01.483Z,7.60
2018-12-01T15:55:29.449Z,7.60
2018-12-01T15:57:57.417Z,7.50
2018-12-01T16:00:26.744Z,7.50
2018-12-01T16:02:54.860Z,7.50
2018-12-01T16:05:23.776Z,7.50
2018-12-01T16:07:53.050Z,7.40
2018-12-01T16:10:21.839Z,7.40
2018-12-01T16:12:54.608Z,7.50
2018-12-01T16:15:31.541Z,7.50
2018-12-01T16:18:00.486Z,7.50
2018-12-01T16:20:28.438Z,7.50
2018-12-01T16:22:56.410Z,7.50
2018-12-01T16:25:25.030Z,7.50
2018-12-01T16:27:52.974Z,7.50
2018-12-01T16:30:22.655Z,7.50
2018-12-01T16:32:53.192Z,7.50
2018-12-01T16:35:21.139Z,7.50
2018-12-01T16:37:49.473Z,7.50
2018-12-01T17:16:44.457Z,7.80
2018-12-01T17:19:12.426Z,7.80
2018-12-01T17:21:41.349Z,7.80
2018-12-01T17:24:09.419Z,7.80
2018-12-01T17:26:37.362Z,7.70
2018-12-01T17:29:06.189Z,7.70
2018-12-01T17:31:34.132Z,7.70
2018-12-01T17:34:02.120Z,7.70
2018-12-01T17:36:30.054Z,7.70
2018-12-01T17:38:58.049Z,7.70
2018-12-01T17:41:29.306Z,7.70
2018-12-01T17:44:00.534Z,7.70
2018-12-01T17:46:28.489Z,7.70
2018-12-01T17:48:56.498Z,7.70
2018-12-01T17:51:24.524Z,7.60
2018-12-01T17:53:56.552Z,7.50
2018-12-01T17:56:24.596Z,7.60
2018-12-01T17:58:52.587Z,7.60
2018-12-01T18:01:20.546Z,7.60
2018-12-01T18:03:48.546Z,7.60
2018-12-01T18:06:16.748Z,7.50
2018-12-01T18:08:44.751Z,7.50
2018-12-01T18:11:13.340Z,7.50
2018-12-01T18:13:41.278Z,7.60
2018-12-01T18:16:09.395Z,7.60
2018-12-01T18:18:37.431Z,7.50
2018-12-01T18:21:05.667Z,7.50
2018-12-01T18:23:33.780Z,7.50
2018-12-01T18:26:01.722Z,7.50
2018-12-01T18:28:33.764Z,7.50
2018-12-01T18:31:03.372Z,7.50
2018-12-01T18:33:35.394Z,7.50
2018-12-01T18:36:03.356Z,7.50
2018-12-01T18:38:31.414Z,7.50
2018-12-01T18:40:59.638Z,7.50
2018-12-01T18:43:27.726Z,7.50
2018-12-01T18:45:58.873Z,7.50
2018-12-01T18:48:26.932Z,7.50
2018-12-01T18:50:55.088Z,7.50
2018-12-01T18:53:23.046Z,7.50
2018-12-01T18:55:53.669Z,7.50
2018-12-01T18:58:21.966Z,7.50
2018-12-01T19:00:52.293Z,7.50
2018-12-01T19:03:22.013Z,7.50
2018-12-01T19:05:49.989Z,7.50
2018-12-01T19:08:17.943Z,7.40
2018-12-01T19:10:46.024Z,7.40
2018-12-01T19:13:14.022Z,7.40
2018-12-01T19:15:42.049Z,7.40
2018-12-01T19:18:09.989Z,7.40
2018-12-01T19:20:38.287Z,7.40
2018-12-01T19:23:07.912Z,7.40
2018-12-01T19:25:36.181Z,7.40
2018-12-01T19:28:04.130Z,7.40
2018-12-01T19:30:32.435Z,7.40
2018-12-01T19:33:05.937Z,7.50
2018-12-01T19:35:33.949Z,7.50
2018-12-01T19:38:01.883Z,7.50
2018-12-01T19:40:31.458Z,7.50
2018-12-01T19:43:00.338Z,7.40
2018-12-01T19:45:28.290Z,7.50
2018-12-01T19:47:56.235Z,7.50
2018-12-01T19:50:40.227Z,7.50
2018-12-01T19:53:10.083Z,7.40
2018-12-01T19:55:37.982Z,7.40
2018-12-01T19:58:10.820Z,7.40
2018-12-01T20:00:39.133Z,7.40
2018-12-01T20:03:09.989Z,7.40
2018-12-01T20:05:38.045Z,7.40
2018-12-01T20:08:07.080Z,7.50
2018-12-01T20:10:37.614Z,7.50
2018-12-01T20:13:11.184Z,7.40
2018-12-01T20:15:42.182Z,7.40
2018-12-01T20:18:17.261Z,7.40
2018-12-01T20:20:45.216Z,7.40
2018-12-01T20:23:13.226Z,7.40
2018-12-01T20:25:41.231Z,7.30
2018-12-01T20:28:09.201Z,7.30
2018-12-01T20:30:37.230Z,7.30
2018-12-01T20:33:05.437Z,7.30
2018-12-01T20:35:37.749Z,7.30
2018-12-01T20:38:13.374Z,7.30
2018-12-01T20:40:41.436Z,7.30
2018-12-01T20:43:09.471Z,7.30
2018-12-01T20:45:37.450Z,7.30
2018-12-01T20:48:05.463Z,7.20
2018-12-01T20:50:33.519Z,7.20
2018-12-01T20:53:01.501Z,7.20
2018-12-01T20:55:30.691Z,7.20
2018-12-01T20:58:00.424Z,7.20
2018-12-01T21:00:28.388Z,7.20
2018-12-01T21:02:56.445Z,7.30
2018-12-01T21:05:24.580Z,7.20
2018-12-01T21:07:52.617Z,7.30
2018-12-01T21:10:25.925Z,7.30
2018-12-01T21:12:54.214Z,7.30
2018-12-01T21:15:22.158Z,7.20
2018-12-01T21:17:50.185Z,7.20
2018-12-01T21:20:18.389Z,7.20
2018-12-01T21:22:47.889Z,7.20
2018-12-01T21:25:18.514Z,7.20
2018-12-01T21:27:46.468Z,7.20
2018-12-01T21:30:18.522Z,7.10
2018-12-01T21:32:47.962Z,7.10
2018-12-01T21:35:16.085Z,7.10
2018-12-01T21:37:44.005Z,7.10
2018-12-01T21:40:18.326Z,7.10
2018-12-01T21:42:46.295Z,7.10
2018-12-01T21:45:16.385Z,7.10
2018-12-01T21:47:43.552Z,7.10
2018-12-01T21:50:16.733Z,7.10
2018-12-01T21:52:47.465Z,7.10
2018-12-01T21:55:15.446Z,7.10
2018-12-01T21:57:44.533Z,7.10
2018-12-01T22:00:32.003Z,7.00
2018-12-01T22:03:08.342Z,7.00
2018-12-01T22:05:40.211Z,7.00
2018-12-01T22:08:09.882Z,7.00
2018-12-01T22:10:37.844Z,6.90
2018-12-01T22:13:06.260Z,7.00
2018-12-01T22:15:34.218Z,7.00
2018-12-01T22:18:02.271Z,7.00
2018-12-01T22:20:30.331Z,7.00
2018-12-01T22:22:58.258Z,7.00
2018-12-01T22:25:26.180Z,7.00
2018-12-01T22:27:54.173Z,6.90
2018-12-01T22:30:22.164Z,6.90
2018-12-01T22:33:08.957Z,6.90
2018-12-01T22:35:37.360Z,7.00
2018-12-01T22:38:05.293Z,6.90
2018-12-01T22:40:34.385Z,6.90
2018-12-01T22:43:03.656Z,6.90
2018-12-01T22:45:31.632Z,6.90
2018-12-01T22:48:00.449Z,6.90
2018-12-01T22:50:28.413Z,6.90
2018-12-01T22:52:56.504Z,6.90
2018-12-01T22:55:25.435Z,6.90
2018-12-01T22:57:55.016Z,6.90
2018-12-01T23:00:28.610Z,6.90
2018-12-01T23:02:56.631Z,6.90
2018-12-01T23:05:24.568Z,6.90
2018-12-01T23:07:52.647Z,6.90
2018-12-01T23:10:20.594Z,7.00
2018-12-01T23:12:48.518Z,7.00
2018-12-01T23:15:17.236Z,7.00
2018-12-01T23:17:46.318Z,7.00
2018-12-01T23:20:16.483Z,7.00
2018-12-01T23:22:44.416Z,7.00
2018-12-01T23:25:12.343Z,7.10
2018-12-01T23:27:40.338Z,7.10
2018-12-01T23:30:13.342Z,7.00
2018-12-01T23:32:41.521Z,7.00
2018-12-01T23:35:09.502Z,7.00
2018-12-01T23:37:37.466Z,7.00
2018-12-01T23:40:08.924Z,7.10
2018-12-01T23:42:37.068Z,7.10
2018-12-01T23:45:08.024Z,7.10
2018-12-01T23:47:35.989Z,7.10
2018-12-01T23:50:06.509Z,7.10
2018-12-01T23:52:34.550Z,7.10
2018-12-01T23:55:02.500Z,7.10
2018-12-01T23:57:30.542Z,7.10
2018-12-01T23:59:58.834Z,7.10
